Time;durP1;ratioP1;P1;durP2;ratioP2;P2;SDS_P1;SDS_P2;PMS_P1;PMS_P2;Temp;Humidity;BMP_temperature;BMP_pressure;BME280_temperature;BME280_humidity;BME280_pressure;Samples;Min_cycle;Max_cycle;Signal;HPM_P1;HPM_P2
2021/11/11 00:00:05;;;;;;;194.70;47.78;;;;;;;;;;5075598;28;20055;-63
2021/11/11 00:02:31;;;;;;;251.30;53.15;;;;;;;;;;5075266;28;20052;-62
2021/11/11 00:04:58;;;;;;;272.02;50.60;;;;;;;;;;5057615;28;20046;-63
2021/11/11 00:07:25;;;;;;;246.77;49.70;;;;;;;;;;5075226;28;20389;-63
2021/11/11 00:09:51;;;;;;;220.90;51.35;;;;;;;;;;5075445;28;20028;-63
2021/11/11 00:12:17;;;;;;;173.85;50.80;;;;;;;;;;5057034;28;20093;-64
2021/11/11 00:14:44;;;;;;;177.05;47.08;;;;;;;;;;5075389;28;20167;-64
2021/11/11 00:17:11;;;;;;;202.13;48.50;;;;;;;;;;5075329;28;20056;-64
2021/11/11 00:19:37;;;;;;;172.32;46.45;;;;;;;;;;5075246;28;20020;-63
2021/11/11 00:22:03;;;;;;;238.40;47.72;;;;;;;;;;5075004;28;20127;-63
2021/11/11 00:24:30;;;;;;;229.18;47.05;;;;;;;;;;5075207;28;20033;-63
2021/11/11 00:26:56;;;;;;;236.63;45.55;;;;;;;;;;5057152;28;20123;-63
2021/11/11 00:29:22;;;;;;;184.27;43.28;;;;;;;;;;5057095;28;20020;-64
2021/11/11 00:31:49;;;;;;;167.23;40.67;;;;;;;;;;5075018;28;20052;-64
2021/11/11 00:34:15;;;;;;;201.02;44.55;;;;;;;;;;5074958;28;20432;-63
2021/11/11 00:36:41;;;;;;;189.98;43.55;;;;;;;;;;5074971;28;20067;-63
2021/11/11 00:39:07;;;;;;;163.52;41.80;;;;;;;;;;5074968;28;20021;-63
2021/11/11 00:41:34;;;;;;;175.55;41.30;;;;;;;;;;5074873;28;20035;-62
2021/11/11 00:44:01;;;;;;;144.32;42.45;;;;;;;;;;5074570;28;20385;-64
2021/11/11 00:46:27;;;;;;;352.27;46.28;;;;;;;;;;5056419;28;20063;-63
2021/11/11 00:48:53;;;;;;;216.57;41.05;;;;;;;;;;5074765;28;20115;-63
2021/11/11 00:51:19;;;;;;;271.92;44.42;;;;;;;;;;5074917;28;20457;-63
2021/11/11 00:53:46;;;;;;;262.85;44.90;;;;;;;;;;5074275;28;20111;-63
2021/11/11 00:56:12;;;;;;;214.20;41.33;;;;;;;;;;5074697;28;20112;-63
2021/11/11 00:58:39;;;;;;;193.20;42.90;;;;;;;;;;5074306;28;20025;-63
2021/11/11 01:01:05;;;;;;;176.70;41.83;;;;;;;;;;5074434;28;20484;-63
2021/11/11 01:03:40;;;;;;;227.13;46.97;;;;;;;;;;5074421;28;20044;-63
2021/11/11 01:06:06;;;;;;;224.07;42.78;;;;;;;;;;5056476;28;20123;-64
2021/11/11 01:08:32;;;;;;;258.13;40.42;;;;;;;;;;5074705;28;20054;-63
2021/11/11 01:11:00;;;;;;;194.68;40.90;;;;;;;;;;5074028;28;20109;-63
2021/11/11 01:13:27;;;;;;;238.00;41.53;;;;;;;;;;5073153;28;20409;-62
2021/11/11 01:15:53;;;;;;;235.98;43.75;;;;;;;;;;5073798;28;20064;-63
2021/11/11 01:18:21;;;;;;;269.70;45.85;;;;;;;;;;5074112;28;20056;-62
2021/11/11 01:20:47;;;;;;;239.82;44.45;;;;;;;;;;5056149;28;20039;-63
2021/11/11 01:23:13;;;;;;;239.05;44.60;;;;;;;;;;5056004;28;20058;-62
2021/11/11 01:25:40;;;;;;;250.20;40.70;;;;;;;;;;5073969;28;20029;-62
2021/11/11 01:28:08;;;;;;;231.63;39.40;;;;;;;;;;5073890;28;20117;-63
2021/11/11 01:30:35;;;;;;;324.70;45.72;;;;;;;;;;5073723;28;20611;-63
2021/11/11 01:33:01;;;;;;;207.80;40.28;;;;;;;;;;5073750;28;20052;-62
2021/11/11 01:35:27;;;;;;;205.45;38.15;;;;;;;;;;5073750;28;20111;-63
2021/11/11 01:37:54;;;;;;;212.00;40.67;;;;;;;;;;5073525;28;20528;-63
2021/11/11 01:40:20;;;;;;;265.65;42.85;;;;;;;;;;5073696;28;20029;-63
2021/11/11 01:42:49;;;;;;;288.65;44.00;;;;;;;;;;5073660;28;20032;-63
2021/11/11 01:45:16;;;;;;;264.42;43.22;;;;;;;;;;5055671;28;20377;-64
2021/11/11 01:47:42;;;;;;;294.05;42.65;;;;;;;;;;5055593;28;20039;-64
2021/11/11 01:50:12;;;;;;;256.63;41.22;;;;;;;;;;5073502;28;20032;-62
2021/11/11 01:52:38;;;;;;;197.70;40.95;;;;;;;;;;5073443;28;20020;-62
2021/11/11 01:55:06;;;;;;;256.23;40.92;;;;;;;;;;5073377;28;20067;-62
2021/11/11 01:57:32;;;;;;;193.07;40.95;;;;;;;;;;5073253;28;20036;-62
2021/11/11 01:59:58;;;;;;;174.55;39.75;;;;;;;;;;5073396;28;20020;-62
2021/11/11 02:02:28;;;;;;;192.98;42.40;;;;;;;;;;5073605;28;20025;-62
2021/11/11 02:04:55;;;;;;;202.30;43.08;;;;;;;;;;5073309;28;20056;-62
2021/11/11 02:07:22;;;;;;;176.38;43.20;;;;;;;;;;5073232;28;20028;-62
2021/11/11 02:09:48;;;;;;;225.45;41.97;;;;;;;;;;5055269;28;20025;-62
2021/11/11 02:12:15;;;;;;;138.18;39.67;;;;;;;;;;5072747;28;20048;-62
2021/11/11 02:14:41;;;;;;;142.52;40.97;;;;;;;;;;5055063;28;20507;-61
2021/11/11 02:17:08;;;;;;;125.70;38.95;;;;;;;;;;5073165;28;20063;-62
2021/11/11 02:19:34;;;;;;;158.55;40.33;;;;;;;;;;5073160;28;20120;-62
2021/11/11 02:22:03;;;;;;;161.70;41.05;;;;;;;;;;5073094;28;20361;-62
2021/11/11 02:24:32;;;;;;;202.35;43.05;;;;;;;;;;5054947;28;20035;-62
2021/11/11 02:26:58;;;;;;;160.07;41.08;;;;;;;;;;5054642;28;20036;-61
2021/11/11 02:29:25;;;;;;;139.40;42.08;;;;;;;;;;5054763;28;20108;-62
2021/11/11 02:31:51;;;;;;;290.38;47.30;;;;;;;;;;5072957;28;20135;-61
2021/11/11 02:34:23;;;;;;;124.60;42.00;;;;;;;;;;5054886;28;20063;-62
2021/11/11 02:36:57;;;;;;;133.90;42.85;;;;;;;;;;5072878;28;20594;-61
2021/11/11 02:39:24;;;;;;;164.07;41.58;;;;;;;;;;5072957;28;20036;-62
2021/11/11 02:41:50;;;;;;;159.52;42.47;;;;;;;;;;5072752;28;20506;-61
2021/11/11 02:44:16;;;;;;;153.65;41.40;;;;;;;;;;5072524;28;20027;-62
2021/11/11 02:46:42;;;;;;;145.45;44.10;;;;;;;;;;5072827;28;20020;-62
2021/11/11 02:49:09;;;;;;;136.82;40.42;;;;;;;;;;5072788;28;20090;-62
2021/11/11 02:51:35;;;;;;;114.82;41.08;;;;;;;;;;5072715;28;20039;-63
2021/11/11 02:54:07;;;;;;;127.95;41.15;;;;;;;;;;5072734;28;20158;-62
2021/11/11 02:56:33;;;;;;;152.73;41.38;;;;;;;;;;5054715;28;20028;-62
2021/11/11 02:59:00;;;;;;;123.32;42.55;;;;;;;;;;5072738;28;20039;-62
2021/11/11 03:01:26;;;;;;;123.78;38.80;;;;;;;;;;5072454;28;20103;-62
2021/11/11 03:03:52;;;;;;;155.55;40.63;;;;;;;;;;5072729;28;20473;-62
2021/11/11 03:06:22;;;;;;;135.82;39.08;;;;;;;;;;5072378;28;20048;-61
2021/11/11 03:08:48;;;;;;;130.07;39.60;;;;;;;;;;5072430;28;20484;-62
2021/11/11 03:11:14;;;;;;;121.85;40.22;;;;;;;;;;5072329;28;20052;-62
2021/11/11 03:13:41;;;;;;;103.30;39.20;;;;;;;;;;5072238;28;20117;-62
2021/11/11 03:16:12;;;;;;;114.10;39.20;;;;;;;;;;5054671;28;20484;-62
2021/11/11 03:18:38;;;;;;;123.30;40.25;;;;;;;;;;5054598;28;20167;-62
2021/11/11 03:21:05;;;;;;;103.38;40.72;;;;;;;;;;5072513;28;20027;-61
2021/11/11 03:23:31;;;;;;;97.38;39.13;;;;;;;;;;5072525;28;20020;-61
2021/11/11 03:25:57;;;;;;;105.78;38.45;;;;;;;;;;5072191;28;20108;-61
2021/11/11 03:28:25;;;;;;;114.35;39.38;;;;;;;;;;5054420;28;20139;-61
2021/11/11 03:30:51;;;;;;;118.15;39.40;;;;;;;;;;5054468;28;20044;-61
2021/11/11 03:33:17;;;;;;;180.10;42.90;;;;;;;;;;5054363;28;20112;-62
2021/11/11 03:35:49;;;;;;;185.27;42.13;;;;;;;;;;5072900;28;20086;-61
2021/11/11 03:38:15;;;;;;;113.45;41.65;;;;;;;;;;5058092;28;20020;-62
2021/11/11 03:40:43;;;;;;;118.43;39.72;;;;;;;;;;5076345;28;20031;-62
2021/11/11 03:43:10;;;;;;;97.05;39.13;;;;;;;;;;5075957;28;20104;-62
2021/11/11 03:45:37;;;;;;;93.55;39.35;;;;;;;;;;5075933;28;20021;-61
2021/11/11 03:48:03;;;;;;;96.47;40.25;;;;;;;;;;5075900;28;20020;-62
2021/11/11 03:50:30;;;;;;;95.93;38.45;;;;;;;;;;5075840;28;20025;-62
2021/11/11 03:52:56;;;;;;;106.70;40.60;;;;;;;;;;5075698;28;20039;-62
2021/11/11 03:55:25;;;;;;;127.93;40.42;;;;;;;;;;5057736;28;20082;-62
2021/11/11 03:57:53;;;;;;;98.32;40.53;;;;;;;;;;5075682;28;20358;-62
2021/11/11 04:00:19;;;;;;;102.55;39.35;;;;;;;;;;5075715;28;20147;-62
2021/11/11 04:02:46;;;;;;;106.38;39.95;;;;;;;;;;5075588;28;20025;-62
2021/11/11 04:05:12;;;;;;;98.20;40.03;;;;;;;;;;5075574;28;20036;-62
2021/11/11 04:07:39;;;;;;;103.35;40.75;;;;;;;;;;5075489;28;20540;-61
2021/11/11 04:10:06;;;;;;;86.28;37.10;;;;;;;;;;5075501;28;20036;-62
2021/11/11 04:12:32;;;;;;;89.97;37.53;;;;;;;;;;5074967;28;20051;-61
2021/11/11 04:14:59;;;;;;;81.72;37.10;;;;;;;;;;5057333;28;20036;-61
2021/11/11 04:17:25;;;;;;;96.22;37.90;;;;;;;;;;5057079;28;20033;-62
2021/11/11 04:19:51;;;;;;;122.68;37.70;;;;;;;;;;5075373;28;20460;-61
2021/11/11 04:22:19;;;;;;;101.68;38.08;;;;;;;;;;5057236;28;20491;-62
2021/11/11 04:24:46;;;;;;;89.53;39.33;;;;;;;;;;5075202;28;20028;-61
2021/11/11 04:27:19;;;;;;;87.35;37.40;;;;;;;;;;5057202;28;20024;-61
2021/11/11 04:29:58;;;;;;;86.15;38.85;;;;;;;;;;5074835;28;20433;-61
2021/11/11 04:32:24;;;;;;;85.80;36.90;;;;;;;;;;5075163;28;20071;-62
2021/11/11 04:34:56;;;;;;;89.93;36.05;;;;;;;;;;5074918;28;20376;-62
2021/11/11 04:37:48;;;;;;;84.20;36.88;;;;;;;;;;5075063;28;20029;-61
2021/11/11 04:40:38;;;;;;;76.25;35.28;;;;;;;;;;5074052;28;20043;-62
2021/11/11 04:43:38;;;;;;;79.00;36.10;;;;;;;;;;5074425;28;20055;-62
2021/11/11 04:59:40;;;;;;;80.22;36.70;;;;;;;;;;5074278;28;20044;-62
2021/11/11 05:04:51;;;;;;;80.63;37.55;;;;;;;;;;5074468;28;20043;-63
2021/11/11 05:07:18;;;;;;;84.35;38.88;;;;;;;;;;5074365;28;20025;-63
2021/11/11 05:09:44;;;;;;;85.82;39.03;;;;;;;;;;5074355;28;20119;-63
2021/11/11 05:12:12;;;;;;;85.68;37.50;;;;;;;;;;5074191;28;20143;-64
2021/11/11 05:14:39;;;;;;;94.65;39.28;;;;;;;;;;5055845;28;20052;-63
2021/11/11 05:17:05;;;;;;;92.32;38.97;;;;;;;;;;5074260;28;20029;-63
2021/11/11 05:19:31;;;;;;;93.10;39.35;;;;;;;;;;5074109;28;20095;-64
2021/11/11 05:21:57;;;;;;;88.30;38.67;;;;;;;;;;5074097;28;20016;-63
2021/11/11 05:24:24;;;;;;;83.22;39.00;;;;;;;;;;5074268;28;20059;-64
2021/11/11 05:26:50;;;;;;;99.43;40.47;;;;;;;;;;5073982;28;20040;-64
2021/11/11 05:29:16;;;;;;;94.75;39.85;;;;;;;;;;5073844;28;20422;-63
2021/11/11 05:31:43;;;;;;;99.35;40.40;;;;;;;;;;5073968;28;20052;-64
2021/11/11 05:34:10;;;;;;;90.20;38.70;;;;;;;;;;5073764;28;20039;-62
2021/11/11 05:36:36;;;;;;;84.25;37.80;;;;;;;;;;5073621;28;20123;-63
2021/11/11 05:39:02;;;;;;;97.32;39.75;;;;;;;;;;5074011;28;20032;-62
2021/11/11 05:41:29;;;;;;;90.65;39.55;;;;;;;;;;5073724;28;20028;-63
2021/11/11 05:43:55;;;;;;;103.47;40.35;;;;;;;;;;5053535;28;20104;-62
2021/11/11 05:46:21;;;;;;;95.10;40.17;;;;;;;;;;5052141;28;20432;-63
2021/11/11 05:48:47;;;;;;;117.38;49.97;;;;;;;;;;5034141;28;20508;-63
2021/11/11 05:51:13;;;;;;;106.45;46.63;;;;;;;;;;5051789;28;20027;-63
2021/11/11 05:53:39;;;;;;;95.82;41.58;;;;;;;;;;5060069;28;20143;-62
2021/11/11 05:56:06;;;;;;;93.97;43.72;;;;;;;;;;5053146;28;20025;-62
2021/11/11 05:58:32;;;;;;;96.53;44.90;;;;;;;;;;5033898;28;20032;-63
2021/11/11 06:00:58;;;;;;;126.00;55.50;;;;;;;;;;5040245;28;20035;-63
2021/11/11 06:03:24;;;;;;;125.43;57.92;;;;;;;;;;5060658;28;20166;-62
2021/11/11 06:05:50;;;;;;;110.07;49.03;;;;;;;;;;5035022;28;20108;-62
2021/11/11 06:08:17;;;;;;;109.10;49.63;;;;;;;;;;5053035;28;20100;-62
2021/11/11 06:10:43;;;;;;;114.22;54.28;;;;;;;;;;5053142;28;20035;-62
2021/11/11 06:13:09;;;;;;;108.65;49.88;;;;;;;;;;5052139;28;20493;-62
2021/11/11 06:15:35;;;;;;;105.20;47.85;;;;;;;;;;5052716;28;20078;-62
2021/11/11 06:18:02;;;;;;;89.25;39.75;;;;;;;;;;5060247;28;20035;-62
2021/11/11 06:20:32;;;;;;;86.88;38.58;;;;;;;;;;5062102;28;20405;-63
2021/11/11 06:22:58;;;;;;;82.68;37.63;;;;;;;;;;5058182;28;20021;-62
2021/11/11 06:25:25;;;;;;;87.85;37.58;;;;;;;;;;5061514;28;20099;-62
2021/11/11 06:27:51;;;;;;;96.55;39.47;;;;;;;;;;5044985;28;20553;-62
2021/11/11 06:30:18;;;;;;;92.43;38.03;;;;;;;;;;5060726;28;20036;-63
2021/11/11 06:32:44;;;;;;;95.38;36.80;;;;;;;;;;5043803;28;20150;-62
2021/11/11 06:35:10;;;;;;;88.65;36.33;;;;;;;;;;5062011;28;20457;-62
2021/11/11 06:37:37;;;;;;;93.57;36.58;;;;;;;;;;5060326;28;20112;-62
2021/11/11 06:40:04;;;;;;;94.25;38.72;;;;;;;;;;5061629;28;20094;-62
2021/11/11 06:42:31;;;;;;;106.95;38.20;;;;;;;;;;5062140;28;20103;-62
2021/11/11 06:44:57;;;;;;;88.38;36.15;;;;;;;;;;5042406;28;20064;-62
2021/11/11 06:47:24;;;;;;;92.35;38.20;;;;;;;;;;5043650;28;20534;-62
2021/11/11 06:49:50;;;;;;;80.60;35.92;;;;;;;;;;5061908;28;20033;-62
2021/11/11 06:52:17;;;;;;;85.60;36.25;;;;;;;;;;5060592;28;20036;-62
2021/11/11 06:54:43;;;;;;;88.32;38.30;;;;;;;;;;5061630;28;20111;-62
2021/11/11 06:57:09;;;;;;;86.88;39.28;;;;;;;;;;5060408;28;20020;-62
2021/11/11 06:59:36;;;;;;;97.88;38.20;;;;;;;;;;5059416;28;20009;-60
2021/11/11 07:02:02;;;;;;;192.63;83.00;;;;;;;;;;5042875;28;20025;-60
2021/11/11 07:04:28;;;;;;;231.13;107.05;;;;;;;;;;5060867;28;20083;-62
2021/11/11 07:06:55;;;;;;;225.15;100.63;;;;;;;;;;5062098;28;20107;-60
2021/11/11 07:09:21;;;;;;;132.95;54.63;;;;;;;;;;5060775;28;20025;-61
2021/11/11 07:11:47;;;;;;;103.93;39.30;;;;;;;;;;5062933;28;20108;-61
2021/11/11 07:14:13;;;;;;;96.00;39.42;;;;;;;;;;5065715;28;20443;-60
2021/11/11 07:16:40;;;;;;;90.65;35.35;;;;;;;;;;5064016;28;20055;-61
2021/11/11 07:19:06;;;;;;;86.50;33.88;;;;;;;;;;5048335;28;20021;-61
2021/11/11 07:21:32;;;;;;;92.80;35.97;;;;;;;;;;5063364;28;20468;-61
2021/11/11 07:23:58;;;;;;;85.47;34.92;;;;;;;;;;5060438;28;20104;-60
2021/11/11 07:26:25;;;;;;;96.05;38.20;;;;;;;;;;5046760;28;20025;-62
2021/11/11 07:28:51;;;;;;;98.97;37.65;;;;;;;;;;5054641;28;20021;-62
2021/11/11 07:31:23;;;;;;;94.97;39.15;;;;;;;;;;5036648;28;20380;-62
2021/11/11 07:33:49;;;;;;;78.30;32.35;;;;;;;;;;5054831;28;20054;-62
2021/11/11 07:36:15;;;;;;;86.47;35.65;;;;;;;;;;5051719;28;20113;-62
2021/11/11 07:38:41;;;;;;;84.20;33.95;;;;;;;;;;5054490;28;20140;-60
2021/11/11 07:41:09;;;;;;;86.32;33.90;;;;;;;;;;5057604;28;20479;-62
2021/11/11 07:43:36;;;;;;;85.40;34.97;;;;;;;;;;5034035;28;20393;-62
2021/11/11 07:46:06;;;;;;;88.97;36.65;;;;;;;;;;5055814;28;20028;-61
2021/11/11 07:48:34;;;;;;;94.45;35.42;;;;;;;;;;5056087;28;20408;-62
2021/11/11 07:51:00;;;;;;;95.22;38.13;;;;;;;;;;5055670;28;20033;-61
2021/11/11 07:53:29;;;;;;;90.35;35.97;;;;;;;;;;5055863;28;20115;-61
2021/11/11 07:55:56;;;;;;;95.68;36.85;;;;;;;;;;5055531;28;20112;-61
2021/11/11 07:58:22;;;;;;;87.63;35.78;;;;;;;;;;5037818;28;20147;-61
2021/11/11 08:00:49;;;;;;;77.22;33.22;;;;;;;;;;5055540;28;20484;-61
2021/11/11 08:03:15;;;;;;;82.03;34.08;;;;;;;;;;5055682;28;20017;-61
2021/11/11 08:05:42;;;;;;;81.50;32.35;;;;;;;;;;5055520;28;20052;-61
2021/11/11 08:08:09;;;;;;;84.50;34.70;;;;;;;;;;5055431;28;20064;-61
2021/11/11 08:10:35;;;;;;;82.95;34.67;;;;;;;;;;5052827;28;20025;-61
2021/11/11 08:13:02;;;;;;;88.20;34.40;;;;;;;;;;5055244;28;20049;-61
2021/11/11 08:15:28;;;;;;;86.60;34.63;;;;;;;;;;5036961;28;20043;-62
2021/11/11 08:17:54;;;;;;;89.43;35.70;;;;;;;;;;5055375;28;20413;-61
2021/11/11 08:20:21;;;;;;;94.35;37.83;;;;;;;;;;5055318;28;20021;-61
2021/11/11 08:22:48;;;;;;;95.68;41.65;;;;;;;;;;5055021;28;20477;-61
2021/11/11 08:25:15;;;;;;;98.75;40.80;;;;;;;;;;5037271;28;20040;-62
2021/11/11 08:27:42;;;;;;;89.53;38.88;;;;;;;;;;5055184;28;20028;-61
2021/11/11 08:30:09;;;;;;;95.38;39.72;;;;;;;;;;5055151;28;20060;-61
2021/11/11 08:32:36;;;;;;;95.30;41.75;;;;;;;;;;5055080;28;20083;-61
2021/11/11 08:35:02;;;;;;;99.90;41.22;;;;;;;;;;5054933;28;20462;-62
2021/11/11 08:37:28;;;;;;;105.25;41.30;;;;;;;;;;5054902;28;20079;-62
2021/11/11 08:39:55;;;;;;;108.07;41.85;;;;;;;;;;5036913;28;20111;-62
2021/11/11 08:42:21;;;;;;;105.00;41.95;;;;;;;;;;5036975;28;20083;-62
2021/11/11 08:44:53;;;;;;;108.07;42.90;;;;;;;;;;5054698;28;20040;-62
2021/11/11 08:47:19;;;;;;;;;;;;;;;;;;5055247;28;20119;-62
2021/11/11 08:49:46;;;;;;;113.30;48.00;;;;;;;;;;5054620;28;20357;-62
2021/11/11 08:52:14;;;;;;;115.93;51.20;;;;;;;;;;5054742;28;20059;-62
2021/11/11 08:54:40;;;;;;;132.32;54.40;;;;;;;;;;5035594;28;20032;-61
2021/11/11 08:57:07;;;;;;;125.10;51.92;;;;;;;;;;5054523;28;20056;-62
2021/11/11 08:59:34;;;;;;;126.90;52.95;;;;;;;;;;5053200;28;20025;-62
2021/11/11 09:02:00;;;;;;;107.65;48.17;;;;;;;;;;5054136;28;20035;-62
2021/11/11 09:04:26;;;;;;;128.20;52.00;;;;;;;;;;5054433;28;20060;-62
2021/11/11 09:06:53;;;;;;;123.25;52.17;;;;;;;;;;5054271;28;20036;-62
2021/11/11 09:09:21;;;;;;;123.38;51.28;;;;;;;;;;5054199;28;20048;-61
2021/11/11 09:11:48;;;;;;;133.15;51.78;;;;;;;;;;5052157;28;20053;-61
2021/11/11 09:14:14;;;;;;;133.90;54.90;;;;;;;;;;5053161;28;20477;-62
2021/11/11 09:16:41;;;;;;;122.28;51.83;;;;;;;;;;5053417;28;20040;-62
2021/11/11 09:19:11;;;;;;;116.90;47.03;;;;;;;;;;5051883;28;20036;-62
2021/11/11 09:21:38;;;;;;;108.25;46.17;;;;;;;;;;5053149;28;20044;-62
2021/11/11 09:24:04;;;;;;;121.10;46.85;;;;;;;;;;5053081;28;20025;-63
2021/11/11 09:26:30;;;;;;;114.35;49.85;;;;;;;;;;5053065;28;20025;-63
2021/11/11 09:28:57;;;;;;;118.38;51.47;;;;;;;;;;5052720;28;20025;-63
2021/11/11 09:31:24;;;;;;;114.40;49.83;;;;;;;;;;5052667;28;20024;-62
2021/11/11 09:33:51;;;;;;;111.97;48.75;;;;;;;;;;5052114;28;20381;-62
2021/11/11 09:36:18;;;;;;;112.80;51.20;;;;;;;;;;5052768;28;20481;-62
2021/11/11 09:38:46;;;;;;;118.88;55.65;;;;;;;;;;5052925;28;20028;-62
2021/11/11 09:41:14;;;;;;;113.80;54.95;;;;;;;;;;5052891;28;20106;-64
2021/11/11 09:43:43;;;;;;;107.43;50.75;;;;;;;;;;5052901;28;20488;-63
2021/11/11 09:46:11;;;;;;;111.82;52.30;;;;;;;;;;5052861;28;20025;-62
2021/11/11 09:48:38;;;;;;;96.00;48.72;;;;;;;;;;5052511;28;20017;-62
2021/11/11 09:51:05;;;;;;;107.78;50.75;;;;;;;;;;5053082;28;20099;-62
2021/11/11 09:53:31;;;;;;;112.72;54.50;;;;;;;;;;5052637;28;20025;-63
2021/11/11 09:58:46;;;;;;;136.15;62.00;;;;;;;;;;5052499;28;20115;-63
2021/11/11 10:01:17;;;;;;;143.63;68.88;;;;;;;;;;5034714;28;20021;-63
2021/11/11 10:03:44;;;;;;;96.67;49.27;;;;;;;;;;5052704;28;20025;-63
2021/11/11 10:06:11;;;;;;;93.85;47.20;;;;;;;;;;5052573;28;20242;-64
2021/11/11 10:08:48;;;;;;;100.72;50.97;;;;;;;;;;5052546;28;20029;-63
2021/11/11 10:11:34;;;;;;;102.82;53.42;;;;;;;;;;5008615;28;1250406;-64
2021/11/11 10:14:01;;;;;;;109.60;52.10;;;;;;;;;;5049616;28;20043;-63
2021/11/11 10:16:27;;;;;;;96.80;47.53;;;;;;;;;;5051603;28;20120;-63
2021/11/11 10:18:58;;;;;;;96.93;46.08;;;;;;;;;;5053065;28;20025;-64
2021/11/11 10:21:32;;;;;;;100.82;47.45;;;;;;;;;;5053101;28;20036;-63
2021/11/11 10:24:11;;;;;;;88.63;44.63;;;;;;;;;;5052974;28;20032;-63
2021/11/11 10:26:39;;;;;;;90.47;44.70;;;;;;;;;;5053033;28;20122;-63
2021/11/11 10:29:24;;;;;;;96.97;46.67;;;;;;;;;;5052145;28;20501;-62
2021/11/11 10:31:54;;;;;;;94.85;46.13;;;;;;;;;;5052608;28;20486;-63
2021/11/11 10:34:21;;;;;;;89.50;44.20;;;;;;;;;;5052825;28;20411;-63
2021/11/11 10:36:51;;;;;;;79.00;41.35;;;;;;;;;;5051243;28;20039;-64
2021/11/11 10:39:29;;;;;;;87.53;42.78;;;;;;;;;;5052866;28;20100;-63
2021/11/11 10:41:56;;;;;;;102.15;48.50;;;;;;;;;;5051581;28;20049;-62
2021/11/11 10:44:22;;;;;;;92.10;46.20;;;;;;;;;;5052954;28;20082;-63
2021/11/11 10:46:59;;;;;;;106.45;50.28;;;;;;;;;;5057006;28;20074;-62
2021/11/11 10:49:30;;;;;;;101.93;49.42;;;;;;;;;;5056687;28;20017;-63
2021/11/11 10:51:57;;;;;;;98.47;48.70;;;;;;;;;;5056609;28;20017;-63
2021/11/11 10:54:23;;;;;;;97.80;47.42;;;;;;;;;;5056787;28;20083;-63
2021/11/11 10:56:50;;;;;;;100.22;50.83;;;;;;;;;;5056784;28;20044;-62
2021/11/11 10:59:19;;;;;;;100.75;49.88;;;;;;;;;;5056429;28;20543;-63
2021/11/11 11:01:46;;;;;;;99.97;47.45;;;;;;;;;;5056513;28;20017;-64
2021/11/11 11:04:26;;;;;;;92.28;44.88;;;;;;;;;;5056203;28;20052;-63
2021/11/11 11:06:52;;;;;;;86.35;44.35;;;;;;;;;;5056271;28;20024;-65
2021/11/11 11:09:18;;;;;;;87.88;43.53;;;;;;;;;;5055760;28;20027;-63
2021/11/11 11:11:45;;;;;;;92.30;44.80;;;;;;;;;;5063978;28;20404;-63
2021/11/11 11:14:20;;;;;;;91.57;44.83;;;;;;;;;;5076429;28;20116;-64
2021/11/11 11:16:47;;;;;;;90.43;46.90;;;;;;;;;;5048424;28;20021;-62
2021/11/11 11:19:16;;;;;;;93.95;46.50;;;;;;;;;;5056322;28;20025;-62
2021/11/11 11:21:52;;;;;;;91.35;47.10;;;;;;;;;;5056213;28;20021;-62
2021/11/11 11:24:24;;;;;;;100.40;50.05;;;;;;;;;;5056181;28;20470;-62
2021/11/11 11:26:52;;;;;;;100.25;51.45;;;;;;;;;;5056243;28;20545;-63
2021/11/11 11:29:27;;;;;;;99.18;50.67;;;;;;;;;;5055836;28;20389;-62
2021/11/11 11:31:57;;;;;;;100.15;50.60;;;;;;;;;;5056159;28;20021;-62
2021/11/11 11:34:27;;;;;;;98.97;51.05;;;;;;;;;;5055980;28;20028;-63
2021/11/11 11:36:55;;;;;;;96.73;48.87;;;;;;;;;;5056113;28;20029;-62
2021/11/11 11:39:24;;;;;;;99.55;52.38;;;;;;;;;;5055940;28;20026;-62
2021/11/11 11:41:50;;;;;;;109.50;53.97;;;;;;;;;;5055937;28;20049;-63
2021/11/11 11:44:23;;;;;;;94.60;49.55;;;;;;;;;;5037666;28;20039;-63
2021/11/11 11:46:59;;;;;;;86.72;46.28;;;;;;;;;;5055860;28;20087;-63
2021/11/11 11:49:26;;;;;;;75.85;41.40;;;;;;;;;;5055876;28;20021;-64
2021/11/11 11:51:52;;;;;;;87.70;45.97;;;;;;;;;;5055787;28;20021;-64
2021/11/11 11:54:31;;;;;;;80.40;42.72;;;;;;;;;;5037723;28;20480;-65
2021/11/11 11:57:02;;;;;;;74.32;41.72;;;;;;;;;;5037143;28;20060;-64
2021/11/11 11:59:34;;;;;;;77.22;42.47;;;;;;;;;;5037703;28;20057;-63
2021/11/11 12:02:14;;;;;;;72.70;41.38;;;;;;;;;;5038024;28;20373;-64
2021/11/11 12:04:56;;;;;;;68.38;39.45;;;;;;;;;;5055556;28;20060;-63
2021/11/11 12:07:32;;;;;;;72.05;39.38;;;;;;;;;;5055376;28;20048;-63
2021/11/11 12:12:52;;;;;;;67.78;38.47;;;;;;;;;;5054730;28;20565;-65
2021/11/11 12:39:43;;;;;;;57.17;31.63;;;;;;;;;;5054771;28;20481;-61
2021/11/11 12:42:09;;;;;;;62.17;31.05;;;;;;;;;;5054897;28;20021;-62
2021/11/11 12:44:36;;;;;;;58.72;33.25;;;;;;;;;;5036648;28;20024;-65
2021/11/11 12:47:04;;;;;;;63.00;33.22;;;;;;;;;;5054527;28;20473;-64
2021/11/11 12:49:31;;;;;;;54.67;31.98;;;;;;;;;;5054680;28;20036;-64
2021/11/11 12:52:12;;;;;;;58.28;32.85;;;;;;;;;;5054634;28;20036;-63
2021/11/11 12:54:43;;;;;;;65.22;34.60;;;;;;;;;;5053699;28;20052;-64
2021/11/11 12:57:10;;;;;;;61.38;34.72;;;;;;;;;;5035442;28;20032;-64
2021/11/11 12:59:37;;;;;;;55.40;31.35;;;;;;;;;;5053696;28;20021;-63
2021/11/11 13:02:05;;;;;;;55.72;31.95;;;;;;;;;;5054134;28;20032;-63
2021/11/11 13:04:46;;;;;;;59.50;32.08;;;;;;;;;;5054259;28;20025;-64
2021/11/11 13:07:33;;;;;;;62.42;32.15;;;;;;;;;;5036098;28;20118;-63
2021/11/11 13:10:06;;;;;;;62.45;34.78;;;;;;;;;;5053200;28;20024;-64
2021/11/11 13:12:33;;;;;;;61.60;34.03;;;;;;;;;;5068708;28;20131;-63
2021/11/11 13:15:03;;;;;;;55.65;32.25;;;;;;;;;;5074072;28;20038;-63
2021/11/11 13:17:36;;;;;;;58.40;33.30;;;;;;;;;;5074015;28;20016;-64
2021/11/11 13:20:18;;;;;;;59.10;34.63;;;;;;;;;;5073694;28;20111;-64
2021/11/11 15:18:02;;;;;;;95.05;46.58;;;;;;;;;;5072628;28;20025;-63
2021/11/11 16:00:04;;;;;;;138.75;60.88;;;;;;;;;;5075802;28;20376;-64
2021/11/11 16:02:49;;;;;;;130.48;59.45;;;;;;;;;;5075757;28;20103;-63
2021/11/11 16:24:34;;;;;;;147.05;61.10;;;;;;;;;;5075331;28;20036;-62
2021/11/11 16:27:02;;;;;;;135.75;53.33;;;;;;;;;;5074943;28;20381;-63
2021/11/11 16:29:28;;;;;;;141.50;54.38;;;;;;;;;;5075155;28;20460;-62
2021/11/11 16:31:55;;;;;;;131.50;52.97;;;;;;;;;;5075170;28;20052;-63
2021/11/11 16:34:22;;;;;;;125.03;52.38;;;;;;;;;;5074966;28;20031;-63
2021/11/11 16:36:48;;;;;;;120.82;50.38;;;;;;;;;;5075100;28;20033;-63
2021/11/11 16:39:16;;;;;;;123.43;50.90;;;;;;;;;;5074951;28;20113;-63
2021/11/11 16:41:43;;;;;;;122.72;51.65;;;;;;;;;;5056924;28;20161;-63
2021/11/11 16:44:10;;;;;;;119.72;48.40;;;;;;;;;;5074785;28;20029;-63
2021/11/11 16:46:38;;;;;;;112.97;46.70;;;;;;;;;;5074864;28;20024;-63
2021/11/11 16:49:05;;;;;;;109.88;45.88;;;;;;;;;;5075168;28;20075;-64
2021/11/11 16:51:31;;;;;;;127.28;48.90;;;;;;;;;;5056379;28;20020;-63
2021/11/11 16:53:58;;;;;;;118.45;49.75;;;;;;;;;;5074885;28;20067;-64
2021/11/11 16:56:26;;;;;;;125.63;51.83;;;;;;;;;;5074417;28;20492;-64
2021/11/11 16:58:52;;;;;;;130.02;52.85;;;;;;;;;;5074335;28;20040;-64
2021/11/11 17:01:19;;;;;;;121.97;51.83;;;;;;;;;;5073736;28;20488;-64
2021/11/11 17:03:45;;;;;;;114.13;48.13;;;;;;;;;;5074501;28;20020;-64
2021/11/11 17:06:11;;;;;;;123.25;54.38;;;;;;;;;;5070640;28;20107;-65
2021/11/11 17:08:38;;;;;;;110.50;45.85;;;;;;;;;;5073119;28;20025;-64
2021/11/11 17:11:04;;;;;;;137.05;54.90;;;;;;;;;;5054669;28;20472;-65
2021/11/11 17:13:30;;;;;;;117.82;50.10;;;;;;;;;;5035938;28;20021;-65
2021/11/11 17:15:57;;;;;;;135.82;52.38;;;;;;;;;;5035934;28;20025;-64
2021/11/11 17:18:26;;;;;;;119.30;47.55;;;;;;;;;;5054331;28;20028;-63
2021/11/11 17:20:55;;;;;;;119.30;48.58;;;;;;;;;;5054020;28;20033;-64
2021/11/11 17:23:22;;;;;;;122.50;50.88;;;;;;;;;;5054016;28;20487;-64
2021/11/11 17:28:25;;;;;;;118.45;49.60;;;;;;;;;;5053794;28;20103;-64
2021/11/11 17:30:55;;;;;;;135.82;53.35;;;;;;;;;;5053918;28;20036;-64
2021/11/11 17:33:22;;;;;;;126.35;49.85;;;;;;;;;;5053785;28;20029;-63
2021/11/11 17:35:50;;;;;;;120.72;49.25;;;;;;;;;;5053369;28;20044;-63
2021/11/11 17:38:16;;;;;;;125.50;49.83;;;;;;;;;;5053620;28;20044;-63
2021/11/11 17:40:43;;;;;;;129.18;51.25;;;;;;;;;;5053393;28;20056;-65
2021/11/11 17:43:09;;;;;;;128.57;52.60;;;;;;;;;;5053662;28;20516;-65
2021/11/11 17:45:47;;;;;;;137.23;55.30;;;;;;;;;;5053834;28;20052;-65
2021/11/11 17:48:13;;;;;;;138.73;54.63;;;;;;;;;;5035491;28;20037;-65
2021/11/11 17:50:43;;;;;;;145.40;51.53;;;;;;;;;;5053303;28;20025;-65
2021/11/11 17:53:11;;;;;;;144.25;51.88;;;;;;;;;;5053076;28;20102;-67
2021/11/11 17:55:41;;;;;;;150.23;52.97;;;;;;;;;;5052774;28;20029;-64
2021/11/11 17:58:08;;;;;;;141.50;55.17;;;;;;;;;;5053065;28;20025;-65